sensor_id;sensor_type;location;lat;lon;timestamp;noise_LAeq;noise_LA_min;noise_LA_max;noise_LA01;noise_LA95
50333;Laerm;36239;48.132;-1.210;2022-07-24T00:00:40;37.85;34.31;45.04;;
50333;Laerm;36239;48.132;-1.210;2022-07-24T00:03:06;38.06;34.69;43.89;;
50333;Laerm;36239;48.132;-1.210;2022-07-24T00:05:32;37.79;34.31;42.03;;
50333;Laerm;36239;48.132;-1.210;2022-07-24T00:07:59;38.10;34.31;44.11;;
50333;Laerm;36239;48.132;-1.210;2022-07-24T00:10:25;38.24;34.31;44.95;;
50333;Laerm;36239;48.132;-1.210;2022-07-24T00:12:51;37.83;33.90;41.89;;
50333;Laerm;36239;48.132;-1.210;2022-07-24T00:15:17;38.18;34.31;42.88;;
50333;Laerm;36239;48.132;-1.210;2022-07-24T00:17:43;37.87;32.35;43.14;;
50333;Laerm;36239;48.132;-1.210;2022-07-24T00:20:09;38.00;34.31;42.82;;
50333;Laerm;36239;48.132;-1.210;2022-07-24T00:22:36;38.66;34.31;42.09;;
50333;Laerm;36239;48.132;-1.210;2022-07-24T00:25:02;37.92;32.93;42.88;;
50333;Laerm;36239;48.132;-1.210;2022-07-24T00:27:28;38.49;35.04;43.44;;
50333;Laerm;36239;48.132;-1.210;2022-07-24T00:29:54;37.95;33.90;45.23;;
50333;Laerm;36239;48.132;-1.210;2022-07-24T00:32:20;38.51;34.31;43.49;;
50333;Laerm;36239;48.132;-1.210;2022-07-24T00:34:46;37.62;32.93;41.22;;
50333;Laerm;36239;48.132;-1.210;2022-07-24T00:37:12;37.97;32.93;46.55;;
50333;Laerm;36239;48.132;-1.210;2022-07-24T00:39:38;37.84;33.44;42.16;;
50333;Laerm;36239;48.132;-1.210;2022-07-24T00:42:04;39.03;34.31;44.15;;
50333;Laerm;36239;48.132;-1.210;2022-07-24T00:44:30;37.92;33.90;42.29;;
50333;Laerm;36239;48.132;-1.210;2022-07-24T00:46:56;37.67;33.44;43.90;;
50333;Laerm;36239;48.132;-1.210;2022-07-24T00:49:22;37.71;32.35;41.61;;
50333;Laerm;36239;48.132;-1.210;2022-07-24T00:51:49;37.45;31.68;41.89;;
50333;Laerm;36239;48.132;-1.210;2022-07-24T00:54:16;37.66;33.44;43.29;;
50333;Laerm;36239;48.132;-1.210;2022-07-24T00:56:43;38.66;34.31;42.82;;
50333;Laerm;36239;48.132;-1.210;2022-07-24T00:59:10;37.88;32.35;42.53;;
50333;Laerm;36239;48.132;-1.210;2022-07-24T01:01:36;37.50;32.35;49.63;;
50333;Laerm;36239;48.132;-1.210;2022-07-24T01:04:02;38.02;30.89;42.93;;
50333;Laerm;36239;48.132;-1.210;2022-07-24T01:06:28;38.49;33.44;46.97;;
50333;Laerm;36239;48.132;-1.210;2022-07-24T01:08:54;37.62;32.35;43.49;;
50333;Laerm;36239;48.132;-1.210;2022-07-24T01:11:20;38.12;32.93;42.35;;
50333;Laerm;36239;48.132;-1.210;2022-07-24T01:13:47;37.88;32.35;44.31;;
50333;Laerm;36239;48.132;-1.210;2022-07-24T01:16:14;37.91;32.93;42.16;;
50333;Laerm;36239;48.132;-1.210;2022-07-24T01:18:40;37.52;32.35;41.46;;
50333;Laerm;36239;48.132;-1.210;2022-07-24T01:21:06;37.48;32.93;40.62;;
50333;Laerm;36239;48.132;-1.210;2022-07-24T01:23:32;37.50;31.68;40.62;;
50333;Laerm;36239;48.132;-1.210;2022-07-24T01:25:58;37.77;32.93;41.38;;
50333;Laerm;36239;48.132;-1.210;2022-07-24T01:28:25;38.22;32.93;42.76;;
50333;Laerm;36239;48.132;-1.210;2022-07-24T01:30:51;38.38;33.44;44.69;;
50333;Laerm;36239;48.132;-1.210;2022-07-24T01:33:17;38.30;33.44;44.43;;
50333;Laerm;36239;48.132;-1.210;2022-07-24T01:35:43;38.46;33.44;42.29;;
50333;Laerm;36239;48.132;-1.210;2022-07-24T01:38:09;37.49;32.35;43.14;;
50333;Laerm;36239;48.132;-1.210;2022-07-24T01:40:36;37.75;32.93;45.27;;
50333;Laerm;36239;48.132;-1.210;2022-07-24T01:43:02;37.77;33.44;43.93;;
50333;Laerm;36239;48.132;-1.210;2022-07-24T01:45:28;37.65;32.93;42.59;;
50333;Laerm;36239;48.132;-1.210;2022-07-24T01:47:54;37.48;32.93;40.62;;
50333;Laerm;36239;48.132;-1.210;2022-07-24T01:50:20;37.96;32.93;42.22;;
50333;Laerm;36239;48.132;-1.210;2022-07-24T01:52:46;37.58;33.44;44.58;;
50333;Laerm;36239;48.132;-1.210;2022-07-24T01:55:13;38.01;33.90;41.68;;
50333;Laerm;36239;48.132;-1.210;2022-07-24T01:57:39;37.93;32.93;41.75;;
50333;Laerm;36239;48.132;-1.210;2022-07-24T02:00:06;37.95;32.35;43.24;;
50333;Laerm;36239;48.132;-1.210;2022-07-24T02:02:35;38.60;32.93;49.59;;
50333;Laerm;36239;48.132;-1.210;2022-07-24T02:05:01;37.65;32.35;42.22;;
50333;Laerm;36239;48.132;-1.210;2022-07-24T02:07:27;37.87;33.44;43.72;;
50333;Laerm;36239;48.132;-1.210;2022-07-24T02:09:52;38.03;33.44;43.49;;
50333;Laerm;36239;48.132;-1.210;2022-07-24T02:12:18;37.60;33.44;40.98;;
50333;Laerm;36239;48.132;-1.210;2022-07-24T02:14:44;38.11;33.44;43.14;;
50333;Laerm;36239;48.132;-1.210;2022-07-24T02:17:10;37.78;33.90;41.61;;
50333;Laerm;36239;48.132;-1.210;2022-07-24T02:19:36;38.34;33.44;41.89;;
50333;Laerm;36239;48.132;-1.210;2022-07-24T02:22:02;38.54;33.44;42.41;;
50333;Laerm;36239;48.132;-1.210;2022-07-24T02:24:29;37.85;33.44;41.68;;
50333;Laerm;36239;48.132;-1.210;2022-07-24T02:26:55;37.68;32.35;42.22;;
50333;Laerm;36239;48.132;-1.210;2022-07-24T02:29:21;37.89;33.90;42.03;;
50333;Laerm;36239;48.132;-1.210;2022-07-24T02:31:47;37.61;32.35;42.16;;
50333;Laerm;36239;48.132;-1.210;2022-07-24T02:34:13;38.16;33.44;43.29;;
50333;Laerm;36239;48.132;-1.210;2022-07-24T02:36:39;37.71;33.44;41.46;;
50333;Laerm;36239;48.132;-1.210;2022-07-24T02:39:05;38.03;32.93;41.96;;
50333;Laerm;36239;48.132;-1.210;2022-07-24T02:41:31;37.73;32.35;43.86;;
50333;Laerm;36239;48.132;-1.210;2022-07-24T02:43:57;37.80;33.44;43.94;;
50333;Laerm;36239;48.132;-1.210;2022-07-24T02:46:23;37.77;32.93;41.30;;
50333;Laerm;36239;48.132;-1.210;2022-07-24T02:48:49;37.52;32.35;42.09;;
50333;Laerm;36239;48.132;-1.210;2022-07-24T02:51:15;37.71;33.44;41.96;;
50333;Laerm;36239;48.132;-1.210;2022-07-24T02:53:41;38.04;32.35;48.69;;
50333;Laerm;36239;48.132;-1.210;2022-07-24T02:56:07;37.92;32.35;44.15;;
50333;Laerm;36239;48.132;-1.210;2022-07-24T02:58:34;38.38;32.35;45.14;;
50333;Laerm;36239;48.132;-1.210;2022-07-24T03:01:00;37.77;32.35;43.14;;
50333;Laerm;36239;48.132;-1.210;2022-07-24T03:03:26;37.64;32.35;41.06;;
50333;Laerm;36239;48.132;-1.210;2022-07-24T03:05:52;37.60;33.44;40.43;;
50333;Laerm;36239;48.132;-1.210;2022-07-24T03:08:18;37.63;32.93;42.65;;
50333;Laerm;36239;48.132;-1.210;2022-07-24T03:10:44;37.57;31.68;40.89;;
50333;Laerm;36239;48.132;-1.210;2022-07-24T03:13:10;38.45;32.93;42.88;;
50333;Laerm;36239;48.132;-1.210;2022-07-24T03:15:37;37.91;32.93;42.59;;
50333;Laerm;36239;48.132;-1.210;2022-07-24T03:18:03;37.92;33.44;42.41;;
50333;Laerm;36239;48.132;-1.210;2022-07-24T03:20:29;37.70;32.93;41.14;;
50333;Laerm;36239;48.132;-1.210;2022-07-24T03:22:56;37.78;32.93;42.41;;
50333;Laerm;36239;48.132;-1.210;2022-07-24T03:25:22;39.51;33.44;43.54;;
50333;Laerm;36239;48.132;-1.210;2022-07-24T03:27:49;37.91;32.93;42.03;;
50333;Laerm;36239;48.132;-1.210;2022-07-24T03:30:15;37.83;33.44;44.90;;
50333;Laerm;36239;48.132;-1.210;2022-07-24T03:32:42;37.79;32.93;42.29;;
50333;Laerm;36239;48.132;-1.210;2022-07-24T03:35:08;37.72;33.44;40.80;;
50333;Laerm;36239;48.132;-1.210;2022-07-24T03:37:34;37.75;32.93;41.89;;
50333;Laerm;36239;48.132;-1.210;2022-07-24T03:40:00;38.24;33.44;41.96;;
50333;Laerm;36239;48.132;-1.210;2022-07-24T03:42:27;38.22;33.90;42.35;;
50333;Laerm;36239;48.132;-1.210;2022-07-24T03:44:54;37.92;32.93;40.89;;
50333;Laerm;36239;48.132;-1.210;2022-07-24T03:47:20;40.66;33.44;52.28;;
50333;Laerm;36239;48.132;-1.210;2022-07-24T03:49:46;43.95;33.90;53.75;;
50333;Laerm;36239;48.132;-1.210;2022-07-24T03:52:12;44.00;33.44;54.01;;
50333;Laerm;36239;48.132;-1.210;2022-07-24T03:54:38;42.92;33.44;53.75;;
50333;Laerm;36239;48.132;-1.210;2022-07-24T03:57:04;44.45;33.44;53.90;;
50333;Laerm;36239;48.132;-1.210;2022-07-24T03:59:32;43.85;33.90;53.83;;
50333;Laerm;36239;48.132;-1.210;2022-07-24T04:01:58;43.30;33.44;53.62;;
50333;Laerm;36239;48.132;-1.210;2022-07-24T04:04:24;44.07;33.44;55.45;;
50333;Laerm;36239;48.132;-1.210;2022-07-24T04:06:50;42.93;32.93;61.54;;
50333;Laerm;36239;48.132;-1.210;2022-07-24T04:09:16;41.34;32.93;51.12;;
50333;Laerm;36239;48.132;-1.210;2022-07-24T04:11:42;41.62;32.93;52.31;;
50333;Laerm;36239;48.132;-1.210;2022-07-24T04:14:10;42.34;33.55;51.49;;
50333;Laerm;36239;48.132;-1.210;2022-07-24T04:16:36;41.14;33.90;51.66;;
50333;Laerm;36239;48.132;-1.210;2022-07-24T04:19:02;42.39;34.31;51.81;;
50333;Laerm;36239;48.132;-1.210;2022-07-24T04:21:28;41.60;34.31;53.10;;
50333;Laerm;36239;48.132;-1.210;2022-07-24T04:23:54;40.43;32.93;51.91;;
50333;Laerm;36239;48.132;-1.210;2022-07-24T04:26:20;41.06;33.90;51.56;;
50333;Laerm;36239;48.132;-1.210;2022-07-24T04:28:46;41.06;32.93;52.17;;
50333;Laerm;36239;48.132;-1.210;2022-07-24T04:31:12;42.10;35.36;51.76;;
50333;Laerm;36239;48.132;-1.210;2022-07-24T04:33:38;40.14;33.90;53.34;;
50333;Laerm;36239;48.132;-1.210;2022-07-24T04:36:05;38.06;33.44;41.22;;
50333;Laerm;36239;48.132;-1.210;2022-07-24T04:38:32;38.34;33.90;43.14;;
50333;Laerm;36239;48.132;-1.210;2022-07-24T04:40:58;40.22;33.44;56.06;;
50333;Laerm;36239;48.132;-1.210;2022-07-24T04:43:24;38.96;34.31;50.50;;
50333;Laerm;36239;48.132;-1.210;2022-07-24T04:45:50;38.41;34.69;48.29;;
50333;Laerm;36239;48.132;-1.210;2022-07-24T04:48:16;39.50;33.90;52.85;;
50333;Laerm;36239;48.132;-1.210;2022-07-24T04:50:42;38.97;34.31;45.11;;
50333;Laerm;36239;48.132;-1.210;2022-07-24T04:53:08;37.92;33.44;44.39;;
50333;Laerm;36239;48.132;-1.210;2022-07-24T04:55:34;38.54;33.44;43.94;;
50333;Laerm;36239;48.132;-1.210;2022-07-24T04:58:00;38.60;33.44;48.98;;
50333;Laerm;36239;48.132;-1.210;2022-07-24T05:00:26;47.70;33.90;73.76;;
50333;Laerm;36239;48.132;-1.210;2022-07-24T05:02:52;39.37;33.90;56.90;;
50333;Laerm;36239;48.132;-1.210;2022-07-24T05:05:18;37.88;32.93;42.76;;
50333;Laerm;36239;48.132;-1.210;2022-07-24T05:07:44;38.09;33.44;45.54;;
50333;Laerm;36239;48.132;-1.210;2022-07-24T05:10:10;47.39;34.31;71.35;;
50333;Laerm;36239;48.132;-1.210;2022-07-24T05:12:36;42.79;33.44;68.26;;
50333;Laerm;36239;48.132;-1.210;2022-07-24T05:15:03;38.97;33.44;46.45;;
50333;Laerm;36239;48.132;-1.210;2022-07-24T05:17:29;39.12;33.90;46.55;;
50333;Laerm;36239;48.132;-1.210;2022-07-24T05:19:55;38.55;33.44;49.51;;
50333;Laerm;36239;48.132;-1.210;2022-07-24T05:22:21;39.35;33.44;47.38;;
50333;Laerm;36239;48.132;-1.210;2022-07-24T05:24:47;38.69;33.90;46.10;;
50333;Laerm;36239;48.132;-1.210;2022-07-24T05:27:13;38.24;33.90;42.03;;
50333;Laerm;36239;48.132;-1.210;2022-07-24T05:29:39;38.07;33.44;42.88;;
50333;Laerm;36239;48.132;-1.210;2022-07-24T05:32:05;38.24;33.90;41.96;;
50333;Laerm;36239;48.132;-1.210;2022-07-24T05:34:32;38.27;33.90;43.77;;
50333;Laerm;36239;48.132;-1.210;2022-07-24T05:36:58;38.31;33.44;44.31;;
50333;Laerm;36239;48.132;-1.210;2022-07-24T05:39:23;38.40;32.93;56.53;;
50333;Laerm;36239;48.132;-1.210;2022-07-24T05:41:50;38.94;32.93;53.79;;
50333;Laerm;36239;48.132;-1.210;2022-07-24T05:44:16;40.01;33.44;55.76;;
50333;Laerm;36239;48.132;-1.210;2022-07-24T05:46:42;38.14;33.44;46.89;;
50333;Laerm;36239;48.132;-1.210;2022-07-24T05:49:08;40.20;33.44;62.14;;
50333;Laerm;36239;48.132;-1.210;2022-07-24T05:51:34;39.33;33.44;58.71;;
50333;Laerm;36239;48.132;-1.210;2022-07-24T05:54:00;43.46;34.31;71.61;;
50333;Laerm;36239;48.132;-1.210;2022-07-24T05:56:26;38.43;32.93;43.04;;
50333;Laerm;36239;48.132;-1.210;2022-07-24T05:58:52;42.95;34.31;61.72;;
50333;Laerm;36239;48.132;-1.210;2022-07-24T06:01:18;43.72;33.44;62.68;;
50333;Laerm;36239;48.132;-1.210;2022-07-24T06:03:44;43.84;34.69;60.53;;
50333;Laerm;36239;48.132;-1.210;2022-07-24T06:06:10;43.71;33.90;57.21;;
50333;Laerm;36239;48.132;-1.210;2022-07-24T06:08:36;43.44;33.44;71.24;;
50333;Laerm;36239;48.132;-1.210;2022-07-24T06:11:02;38.64;33.90;55.79;;
50333;Laerm;36239;48.132;-1.210;2022-07-24T06:13:28;40.43;34.69;55.63;;
50333;Laerm;36239;48.132;-1.210;2022-07-24T06:15:54;38.00;33.44;51.31;;
50333;Laerm;36239;48.132;-1.210;2022-07-24T06:18:20;48.09;34.31;65.73;;
50333;Laerm;36239;48.132;-1.210;2022-07-24T06:20:46;39.24;34.31;57.83;;
50333;Laerm;36239;48.132;-1.210;2022-07-24T06:23:12;40.84;35.04;51.67;;
50333;Laerm;36239;48.132;-1.210;2022-07-24T06:25:38;38.85;34.31;51.10;;
50333;Laerm;36239;48.132;-1.210;2022-07-24T06:28:04;40.01;32.93;57.34;;
50333;Laerm;36239;48.132;-1.210;2022-07-24T06:30:30;38.55;32.93;53.45;;
50333;Laerm;36239;48.132;-1.210;2022-07-24T06:32:57;37.96;33.90;46.50;;
50333;Laerm;36239;48.132;-1.210;2022-07-24T06:35:24;38.56;33.44;50.86;;
50333;Laerm;36239;48.132;-1.210;2022-07-24T06:37:50;38.93;33.90;57.23;;
50333;Laerm;36239;48.132;-1.210;2022-07-24T06:40:16;41.32;34.31;52.90;;
50333;Laerm;36239;48.132;-1.210;2022-07-24T06:42:43;40.61;33.44;53.89;;
50333;Laerm;36239;48.132;-1.210;2022-07-24T06:45:10;41.70;33.90;65.17;;
50333;Laerm;36239;48.132;-1.210;2022-07-24T06:47:36;38.49;32.93;47.88;;
50333;Laerm;36239;48.132;-1.210;2022-07-24T06:50:02;40.42;32.93;55.94;;
50333;Laerm;36239;48.132;-1.210;2022-07-24T06:52:28;38.47;33.44;47.98;;
50333;Laerm;36239;48.132;-1.210;2022-07-24T06:54:54;38.27;33.44;47.34;;
50333;Laerm;36239;48.132;-1.210;2022-07-24T06:57:21;38.18;33.44;49.69;;
50333;Laerm;36239;48.132;-1.210;2022-07-24T06:59:47;38.01;33.90;43.14;;
50333;Laerm;36239;48.132;-1.210;2022-07-24T07:02:13;39.28;33.90;59.19;;
50333;Laerm;36239;48.132;-1.210;2022-07-24T07:04:39;39.18;33.90;47.95;;
50333;Laerm;36239;48.132;-1.210;2022-07-24T07:07:05;39.02;33.90;49.72;;
50333;Laerm;36239;48.132;-1.210;2022-07-24T07:09:31;45.26;33.90;64.12;;
50333;Laerm;36239;48.132;-1.210;2022-07-24T07:11:57;38.41;33.44;46.95;;
50333;Laerm;36239;48.132;-1.210;2022-07-24T07:14:23;38.18;33.44;45.17;;
50333;Laerm;36239;48.132;-1.210;2022-07-24T07:16:49;38.08;33.90;45.83;;
50333;Laerm;36239;48.132;-1.210;2022-07-24T07:19:15;38.38;33.90;51.45;;
50333;Laerm;36239;48.132;-1.210;2022-07-24T07:21:41;38.49;33.44;47.68;;
50333;Laerm;36239;48.132;-1.210;2022-07-24T07:24:07;38.39;33.44;57.83;;
50333;Laerm;36239;48.132;-1.210;2022-07-24T07:26:33;39.24;34.31;43.39;;
50333;Laerm;36239;48.132;-1.210;2022-07-24T07:28:59;43.38;36.20;54.01;;
50333;Laerm;36239;48.132;-1.210;2022-07-24T07:31:25;43.42;35.94;53.33;;
50333;Laerm;36239;48.132;-1.210;2022-07-24T07:33:52;48.79;37.88;77.92;;
50333;Laerm;36239;48.132;-1.210;2022-07-24T07:36:18;40.85;36.20;61.51;;
50333;Laerm;36239;48.132;-1.210;2022-07-24T07:38:44;38.13;33.44;49.51;;
50333;Laerm;36239;48.132;-1.210;2022-07-24T07:41:11;39.44;31.68;63.12;;
50333;Laerm;36239;48.132;-1.210;2022-07-24T07:43:38;39.70;33.90;56.39;;
50333;Laerm;36239;48.132;-1.210;2022-07-24T07:46:04;37.98;33.90;44.03;;
50333;Laerm;36239;48.132;-1.210;2022-07-24T07:48:31;41.51;34.69;58.99;;
50333;Laerm;36239;48.132;-1.210;2022-07-24T07:50:57;39.97;35.36;55.53;;
50333;Laerm;36239;48.132;-1.210;2022-07-24T07:53:23;38.99;33.44;56.39;;
50333;Laerm;36239;48.132;-1.210;2022-07-24T07:55:49;38.76;33.44;52.28;;
50333;Laerm;36239;48.132;-1.210;2022-07-24T07:58:19;38.51;33.90;53.13;;
50333;Laerm;36239;48.132;-1.210;2022-07-24T08:00:45;40.27;34.31;60.23;;
50333;Laerm;36239;48.132;-1.210;2022-07-24T08:03:11;44.36;33.90;65.65;;
50333;Laerm;36239;48.132;-1.210;2022-07-24T08:05:37;38.45;33.90;50.17;;
50333;Laerm;36239;48.132;-1.210;2022-07-24T08:08:03;38.17;33.90;48.41;;
50333;Laerm;36239;48.132;-1.210;2022-07-24T08:10:29;46.02;33.90;58.91;;
50333;Laerm;36239;48.132;-1.210;2022-07-24T08:12:55;39.00;34.69;49.88;;
50333;Laerm;36239;48.132;-1.210;2022-07-24T08:15:21;40.27;33.44;59.18;;
50333;Laerm;36239;48.132;-1.210;2022-07-24T08:17:54;40.48;34.69;60.22;;
50333;Laerm;36239;48.132;-1.210;2022-07-24T08:20:20;41.25;36.69;50.86;;
50333;Laerm;36239;48.132;-1.210;2022-07-24T08:22:46;41.61;36.91;47.57;;
50333;Laerm;36239;48.132;-1.210;2022-07-24T08:25:13;44.02;34.69;62.69;;
50333;Laerm;36239;48.132;-1.210;2022-07-24T08:27:39;41.85;35.94;63.94;;
50333;Laerm;36239;48.132;-1.210;2022-07-24T08:30:05;38.82;34.31;47.88;;
50333;Laerm;36239;48.132;-1.210;2022-07-24T08:32:31;38.89;33.90;55.14;;
50333;Laerm;36239;48.132;-1.210;2022-07-24T08:34:57;43.91;33.90;62.59;;
50333;Laerm;36239;48.132;-1.210;2022-07-24T08:37:23;48.89;33.90;67.59;;
50333;Laerm;36239;48.132;-1.210;2022-07-24T08:39:49;38.92;33.90;47.74;;
50333;Laerm;36239;48.132;-1.210;2022-07-24T08:42:15;38.29;33.90;45.04;;
50333;Laerm;36239;48.132;-1.210;2022-07-24T08:44:42;43.93;33.90;69.07;;
50333;Laerm;36239;48.132;-1.210;2022-07-24T08:47:08;43.15;34.69;64.29;;
50333;Laerm;36239;48.132;-1.210;2022-07-24T08:49:35;45.71;34.69;72.39;;
50333;Laerm;36239;48.132;-1.210;2022-07-24T08:52:03;38.74;34.31;51.59;;
50333;Laerm;36239;48.132;-1.210;2022-07-24T08:54:29;38.95;34.31;50.14;;
50333;Laerm;36239;48.132;-1.210;2022-07-24T08:56:55;38.45;33.44;45.75;;
50333;Laerm;36239;48.132;-1.210;2022-07-24T08:59:22;39.19;34.31;48.58;;
50333;Laerm;36239;48.132;-1.210;2022-07-24T09:01:48;41.95;35.36;64.48;;
50333;Laerm;36239;48.132;-1.210;2022-07-24T09:04:33;39.42;34.69;49.65;;
50333;Laerm;36239;48.132;-1.210;2022-07-24T09:07:00;53.37;34.69;80.32;;
50333;Laerm;36239;48.132;-1.210;2022-07-24T09:09:26;54.82;34.31;80.78;;
50333;Laerm;36239;48.132;-1.210;2022-07-24T09:14:47;39.08;34.31;52.33;;
50333;Laerm;36239;48.132;-1.210;2022-07-24T09:17:15;45.51;35.94;72.06;;
50333;Laerm;36239;48.132;-1.210;2022-07-24T09:19:51;43.35;35.66;71.59;;
50333;Laerm;36239;48.132;-1.210;2022-07-24T09:27:31;41.90;38.67;48.39;;
50333;Laerm;36239;48.132;-1.210;2022-07-24T09:29:57;46.16;38.05;61.35;;
50333;Laerm;36239;48.132;-1.210;2022-07-24T09:32:24;41.81;38.37;59.45;;
50333;Laerm;36239;48.132;-1.210;2022-07-24T09:34:51;42.28;38.52;56.17;;
50333;Laerm;36239;48.132;-1.210;2022-07-24T09:37:17;54.16;38.67;80.09;;
50333;Laerm;36239;48.132;-1.210;2022-07-24T09:39:43;41.37;38.21;51.34;;
50333;Laerm;36239;48.132;-1.210;2022-07-24T09:42:10;44.04;39.58;68.81;;
50333;Laerm;36239;48.132;-1.210;2022-07-24T09:44:36;60.36;40.33;84.94;;
50333;Laerm;36239;48.132;-1.210;2022-07-24T09:47:06;45.94;39.92;69.61;;
50333;Laerm;36239;48.132;-1.210;2022-07-24T09:49:33;54.03;39.58;89.66;;
50333;Laerm;36239;48.132;-1.210;2022-07-24T09:52:18;45.59;36.20;78.37;;
50333;Laerm;36239;48.132;-1.210;2022-07-24T09:54:48;51.56;35.94;83.19;;
50333;Laerm;36239;48.132;-1.210;2022-07-24T09:57:15;47.65;34.69;71.80;;
50333;Laerm;36239;48.132;-1.210;2022-07-24T09:59:53;48.98;33.90;73.12;;
50333;Laerm;36239;48.132;-1.210;2022-07-24T10:02:20;49.80;35.36;80.33;;
50333;Laerm;36239;48.132;-1.210;2022-07-24T10:04:47;49.23;36.20;79.70;;
50333;Laerm;36239;48.132;-1.210;2022-07-24T10:07:14;50.94;35.36;81.70;;
50333;Laerm;36239;48.132;-1.210;2022-07-24T10:09:42;41.12;35.36;56.08;;
50333;Laerm;36239;48.132;-1.210;2022-07-24T10:12:16;62.06;35.36;91.98;;
50333;Laerm;36239;48.132;-1.210;2022-07-24T10:14:43;50.63;35.04;83.51;;
50333;Laerm;36239;48.132;-1.210;2022-07-24T10:17:10;49.53;37.12;68.88;;
50333;Laerm;36239;48.132;-1.210;2022-07-24T10:19:41;42.21;34.69;65.60;;
50333;Laerm;36239;48.132;-1.210;2022-07-24T10:24:52;41.66;37.12;63.51;;
50333;Laerm;36239;48.132;-1.210;2022-07-24T10:27:23;43.48;35.36;69.51;;
50333;Laerm;36239;48.132;-1.210;2022-07-24T10:29:49;51.31;35.36;75.94;;
50333;Laerm;36239;48.132;-1.210;2022-07-24T10:32:17;39.90;32.93;54.74;;
50333;Laerm;36239;48.132;-1.210;2022-07-24T10:34:48;43.35;34.69;65.64;;
50333;Laerm;36239;48.132;-1.210;2022-07-24T10:37:18;39.64;34.69;62.88;;
50333;Laerm;36239;48.132;-1.210;2022-07-24T10:42:31;39.44;34.31;56.38;;
50333;Laerm;36239;48.132;-1.210;2022-07-24T10:45:16;40.07;34.69;60.24;;
50333;Laerm;36239;48.132;-1.210;2022-07-24T10:47:44;40.96;34.69;62.09;;
50333;Laerm;36239;48.132;-1.210;2022-07-24T10:50:10;40.10;34.31;52.29;;
50333;Laerm;36239;48.132;-1.210;2022-07-24T10:52:36;41.86;37.88;57.68;;
50333;Laerm;36239;48.132;-1.210;2022-07-24T10:57:49;41.48;36.69;54.20;;
50333;Laerm;36239;48.132;-1.210;2022-07-24T11:00:26;56.20;35.66;89.46;;
50333;Laerm;36239;48.132;-1.210;2022-07-24T11:02:56;39.66;33.44;57.24;;
50333;Laerm;36239;48.132;-1.210;2022-07-24T11:05:26;41.27;33.90;62.49;;
50333;Laerm;36239;48.132;-1.210;2022-07-24T11:10:47;40.96;34.31;67.24;;
50333;Laerm;36239;48.132;-1.210;2022-07-24T11:18:38;38.55;33.44;56.96;;
50333;Laerm;36239;48.132;-1.210;2022-07-24T11:21:05;48.53;35.04;68.97;;
50333;Laerm;36239;48.132;-1.210;2022-07-24T11:23:31;39.75;34.69;52.94;;
50333;Laerm;36239;48.132;-1.210;2022-07-24T11:29:50;39.83;34.69;57.87;;
50333;Laerm;36239;48.132;-1.210;2022-07-24T11:31:42;38.19;33.44;45.63;;
50333;Laerm;36239;48.132;-1.210;2022-07-24T11:34:09;41.46;34.31;63.07;;
50333;Laerm;36239;48.132;-1.210;2022-07-24T11:36:35;39.61;33.44;58.69;;
50333;Laerm;36239;48.132;-1.210;2022-07-24T11:39:03;44.62;32.93;71.91;;
50333;Laerm;36239;48.132;-1.210;2022-07-24T11:41:42;38.94;33.90;52.47;;
50333;Laerm;36239;48.132;-1.210;2022-07-24T11:44:08;38.81;33.97;55.54;;
50333;Laerm;36239;48.132;-1.210;2022-07-24T11:46:35;47.02;32.35;74.76;;
50333;Laerm;36239;48.132;-1.210;2022-07-24T11:49:05;38.78;33.90;46.52;;
50333;Laerm;36239;48.132;-1.210;2022-07-24T11:51:31;39.04;32.93;57.77;;
50333;Laerm;36239;48.132;-1.210;2022-07-24T11:53:57;38.91;34.31;65.23;;
50333;Laerm;36239;48.132;-1.210;2022-07-24T11:56:23;39.43;33.90;49.81;;
50333;Laerm;36239;48.132;-1.210;2022-07-24T11:58:49;45.05;32.35;67.87;;
50333;Laerm;36239;48.132;-1.210;2022-07-24T12:01:19;42.11;34.31;69.71;;
50333;Laerm;36239;48.132;-1.210;2022-07-24T12:03:51;38.90;33.44;51.42;;
50333;Laerm;36239;48.132;-1.210;2022-07-24T12:06:18;39.63;34.69;51.66;;
50333;Laerm;36239;48.132;-1.210;2022-07-24T12:08:44;39.24;33.90;44.83;;
50333;Laerm;36239;48.132;-1.210;2022-07-24T12:11:10;39.57;33.44;46.95;;
50333;Laerm;36239;48.132;-1.210;2022-07-24T12:13:40;45.04;35.36;70.19;;
50333;Laerm;36239;48.132;-1.210;2022-07-24T12:16:07;38.95;32.93;63.27;;
50333;Laerm;36239;48.132;-1.210;2022-07-24T12:18:33;54.66;33.90;78.50;;
50333;Laerm;36239;48.132;-1.210;2022-07-24T12:21:00;58.76;35.04;79.31;;
50333;Laerm;36239;48.132;-1.210;2022-07-24T12:23:26;49.89;35.36;73.53;;
50333;Laerm;36239;48.132;-1.210;2022-07-24T12:25:55;52.20;35.66;81.04;;
50333;Laerm;36239;48.132;-1.210;2022-07-24T12:28:21;44.82;32.93;69.12;;
50333;Laerm;36239;48.132;-1.210;2022-07-24T12:30:50;42.11;33.90;70.05;;
50333;Laerm;36239;48.132;-1.210;2022-07-24T12:38:50;47.35;34.31;73.20;;
50333;Laerm;36239;48.132;-1.210;2022-07-24T12:41:18;52.35;34.69;73.94;;
50333;Laerm;36239;48.132;-1.210;2022-07-24T12:43:48;49.94;35.36;82.30;;
50333;Laerm;36239;48.132;-1.210;2022-07-24T12:46:15;40.07;35.36;57.93;;
50333;Laerm;36239;48.132;-1.210;2022-07-24T12:48:55;45.96;35.36;78.06;;
50333;Laerm;36239;48.132;-1.210;2022-07-24T12:51:21;41.58;33.90;65.86;;
50333;Laerm;36239;48.132;-1.210;2022-07-24T12:53:51;58.20;35.94;77.99;;
50333;Laerm;36239;48.132;-1.210;2022-07-24T12:56:18;58.48;35.66;84.27;;
50333;Laerm;36239;48.132;-1.210;2022-07-24T12:58:57;59.52;36.45;89.07;;
50333;Laerm;36239;48.132;-1.210;2022-07-24T13:01:24;51.55;35.66;72.85;;
50333;Laerm;36239;48.132;-1.210;2022-07-24T13:04:00;57.58;37.52;89.98;;
50333;Laerm;36239;48.132;-1.210;2022-07-24T13:06:35;55.05;35.66;80.93;;
50333;Laerm;36239;48.132;-1.210;2022-07-24T13:09:02;56.43;35.01;80.15;;
50333;Laerm;36239;48.132;-1.210;2022-07-24T13:11:29;58.66;35.36;89.28;;
50333;Laerm;36239;48.132;-1.210;2022-07-24T13:13:55;54.63;36.91;77.18;;
50333;Laerm;36239;48.132;-1.210;2022-07-24T13:16:21;51.04;37.52;71.15;;
50333;Laerm;36239;48.132;-1.210;2022-07-24T13:18:49;53.26;36.20;74.81;;
50333;Laerm;36239;48.132;-1.210;2022-07-24T13:21:16;58.63;34.69;86.00;;
50333;Laerm;36239;48.132;-1.210;2022-07-24T13:23:44;57.01;35.66;79.75;;
50333;Laerm;36239;48.132;-1.210;2022-07-24T13:26:11;53.89;37.52;77.39;;
50333;Laerm;36239;48.132;-1.210;2022-07-24T13:28:37;54.23;35.66;78.43;;
50333;Laerm;36239;48.132;-1.210;2022-07-24T13:31:03;55.45;35.04;83.08;;
50333;Laerm;36239;48.132;-1.210;2022-07-24T13:33:30;52.93;35.66;72.12;;
50333;Laerm;36239;48.132;-1.210;2022-07-24T13:35:56;58.75;36.91;90.39;;
50333;Laerm;36239;48.132;-1.210;2022-07-24T13:38:22;55.99;38.37;80.05;;
50333;Laerm;36239;48.132;-1.210;2022-07-24T13:40:48;56.56;35.94;84.46;;
50333;Laerm;36239;48.132;-1.210;2022-07-24T13:43:14;52.38;36.45;72.68;;
50333;Laerm;36239;48.132;-1.210;2022-07-24T13:45:40;58.84;37.88;83.78;;
50333;Laerm;36239;48.132;-1.210;2022-07-24T13:48:06;56.31;36.20;79.19;;
50333;Laerm;36239;48.132;-1.210;2022-07-24T13:50:32;60.24;37.88;91.19;;
50333;Laerm;36239;48.132;-1.210;2022-07-24T13:52:58;53.65;37.12;72.22;;
50333;Laerm;36239;48.132;-1.210;2022-07-24T13:55:24;52.19;36.69;80.08;;
50333;Laerm;36239;48.132;-1.210;2022-07-24T13:57:50;50.25;36.20;70.23;;
50333;Laerm;36239;48.132;-1.210;2022-07-24T14:00:16;54.19;35.36;76.96;;
50333;Laerm;36239;48.132;-1.210;2022-07-24T14:02:42;52.88;36.69;75.51;;